ADDS TAF Board (Experimental) INFO

IDs: Format: Expanded Condensed

Updated at: 0623 UTC 02 Oct 2014

KMSP - Minneapolis-St Paul, MN, US

Issued at 0538 UTC 02 Oct 2014
Time0611Z02/07Z02/08Z02/09Z02/10Z02/11Z02/12Z02/13Z02/14Z02/15Z02/16Z02/17Z02/18Z02/19Z
TypeOBSPRVLPRVLPRVLPRVLPRVLPRVLPRVLPRVLPRVLPRVLPRVLPRVLPRVL
VIS23330.50.50.50.53>6>6>6>6>6
CIG77773333799999
CoverOVCBKNBKNBKNOVXOVXOVXOVXOVCOVCOVCOVCOVCOVC
FltCatIFRIFRIFRIFRLIFRLIFRLIFRLIFRIFRIFRIFRIFRIFRIFR
WXBRBRBRBRFGFGFGFGBR----------
WDir70VRBVRBVRBVRBVRBVRBVRB340320320320320320
WSpd40000000344444
WGst----------------------------
R04/22
XWnd-2VRBVRBVRBVRBVRBVRBVRB344444
HWnd4VRBVRBVRBVRBVRBVRBVRB100000
R12/30
XWnd3VRBVRBVRBVRBVRBVRBVRB211111
HWnd3VRBVRBVRBVRBVRBVRBVRB-2-4-4-4-4-4
R17/35
XWnd4VRBVRBVRBVRBVRBVRBVRB-1-2-2-2-2-2
HWnd-1VRBVRBVRBVRBVRBVRBVRB-3-3-3-3-3-3
Raw TAF
KMSP 020538Z 0206/0312 00000KT 3SM BR BKN007
  FM021000 00000KT 1/2SM FG VV003
  FM021400 34003KT 3SM BR SCT004 OVC007
  FM021500 32004KT P6SM OVC009
  FM022000 31006KT 6SM -RA OVC015
  FM030200 29006KT P6SM SCT050 BKN150
  FM030900 30012KT P6SM SCT020


Raw METAR
KMSP 020611Z 07004KT 2SM BR OVC007 14/13 A2982 RMK AO2 T01390133
KMSP 020553Z 07005KT 3SM BR BKN007 OVC180 14/13 A2981 RMK AO2 SLP097 T01390133 10150 20139 401500100 58005

TAF Board Legend

Hazard VFR MVFR IFR LIFR
Visibility (sm) >5 3≤X≤5 1≤X<3 <1
Ceiling (100 ft) >30 10≤X≤30 5≤X<10 <5
Wind Speed (kt) <10 10≤X<20 20≤X<30 ≥30
Wind Gust (kt) <15 15≤X<25 25≤X<35 ≥35
Weather No Wx Reported VCTS,-TS,-FZRA TS,FZRA +TS,+FZRA


Page loaded:  06:23 UTC  |   11:23 PM Pacific  |   12:23 AM Mountain  |   01:23 AM Central  |   02:23 AM Eastern

 

ADVISORIES

FORECASTS

FORECASTS

OBSERVATIONS

USER TOOLS

ABOUT US